createdAt,value
2019-04-05T11:23:20.942Z,22.03
2019-04-05T11:25:55.906Z,20.03
2019-04-05T11:28:30.578Z,21.93
2019-04-05T11:30:59.835Z,20.50
2019-04-05T11:33:28.988Z,22.47
2019-04-05T11:35:58.149Z,20.40
2019-04-05T11:38:27.996Z,21.30
2019-04-05T11:40:57.762Z,19.80
2019-04-05T11:50:18.088Z,19.97
2019-04-05T11:56:31.133Z,19.73
2019-04-05T11:59:06.678Z,20.80
2019-04-05T12:07:27.489Z,21.30
2019-04-05T12:09:56.932Z,20.70
2019-04-05T12:42:44.772Z,22.80
2019-04-05T12:48:28.485Z,23.43
2019-04-05T12:51:48.229Z,25.93
2019-04-05T12:57:39.968Z,23.20
2019-04-05T13:00:33.801Z,24.00
2019-04-05T13:03:05.699Z,22.70
2019-04-05T13:05:37.964Z,23.00
2019-04-05T13:08:11.140Z,23.17
2019-04-05T13:10:39.112Z,23.50
2019-04-05T13:13:14.372Z,22.60
2019-04-05T13:15:52.597Z,22.57
2019-04-05T13:18:30.676Z,23.43
2019-04-05T13:21:14.446Z,26.13
2019-04-05T13:23:57.311Z,23.20
2019-04-05T13:26:26.484Z,24.83
2019-04-05T13:31:52.432Z,22.20
2019-04-05T13:34:25.399Z,21.70
2019-04-05T13:36:51.871Z,22.10
2019-04-05T13:39:20.836Z,22.50
2019-04-05T13:41:49.699Z,22.07
2019-04-05T13:44:18.521Z,22.27
2019-04-05T13:47:46.221Z,23.13
2019-04-05T13:49:58.858Z,25.07
2019-04-05T13:52:35.837Z,23.13
2019-04-05T13:58:55.385Z,22.20
2019-04-05T14:02:06.074Z,22.07
2019-04-05T14:04:36.644Z,23.53
2019-04-05T14:09:55.823Z,25.03
2019-04-05T14:12:31.585Z,22.57
2019-04-05T14:20:58.328Z,22.80
2019-04-05T14:36:38.183Z,22.60
2019-04-05T14:42:10.268Z,24.50
2019-04-05T14:50:58.659Z,24.30
2019-04-05T14:53:27.286Z,24.30
2019-04-05T14:55:59.070Z,27.03
2019-04-05T14:58:27.155Z,22.33
2019-04-05T15:00:56.416Z,24.83
2019-04-05T15:03:25.786Z,24.90
2019-04-05T15:05:54.445Z,22.80
2019-04-05T15:08:23.773Z,24.10
2019-04-05T15:10:56.647Z,22.77
2019-04-05T15:13:35.073Z,25.00
2019-04-05T15:16:04.274Z,24.23
2019-04-05T15:19:25.510Z,24.37
2019-04-05T15:31:29.850Z,23.67
2019-04-05T15:37:41.130Z,26.00
2019-04-05T15:43:38.677Z,23.30
2019-04-05T15:46:34.056Z,25.67
2019-04-05T15:49:10.522Z,23.87
2019-04-05T15:51:54.321Z,23.83
2019-04-05T15:54:55.885Z,24.67
2019-04-05T15:57:39.597Z,23.60
2019-04-05T16:03:39.054Z,24.27
2019-04-05T16:09:28.676Z,23.73
2019-04-05T16:12:05.788Z,24.97
2019-04-05T16:15:28.648Z,24.77
2019-04-05T16:19:07.810Z,24.97
2019-04-05T16:27:31.466Z,25.33
2019-04-05T16:30:27.085Z,25.73
2019-04-05T16:33:02.395Z,25.40
2019-04-05T16:35:35.616Z,26.37
2019-04-05T16:38:20.547Z,25.37
2019-04-05T16:40:56.376Z,27.30
2019-04-05T16:43:25.651Z,28.07
2019-04-05T16:46:00.451Z,27.57
2019-04-05T16:48:39.774Z,25.77
2019-04-05T16:51:14.350Z,28.63
2019-04-05T16:54:05.222Z,25.13
2019-04-05T16:56:42.454Z,26.27
2019-04-05T16:59:32.535Z,26.93
2019-04-05T17:02:07.634Z,24.70
2019-04-05T22:21:52.608Z,34.20
2019-04-05T23:06:19.323Z,29.83
2019-04-05T23:08:47.921Z,30.57
2019-04-05T23:11:16.489Z,27.83
2019-04-05T23:13:45.058Z,31.27
2019-04-05T23:16:14.522Z,30.27
2019-04-05T23:18:43.082Z,30.30
2019-04-05T23:21:11.708Z,34.53
2019-04-05T23:23:40.226Z,34.20
2019-04-05T23:26:08.848Z,34.37
2019-04-05T23:28:37.388Z,36.43
2019-04-05T23:31:05.954Z,34.80
2019-04-05T23:33:34.531Z,32.83
2019-04-05T23:36:03.098Z,36.40
2019-04-05T23:38:31.702Z,35.47
2019-04-05T23:41:00.935Z,33.97
2019-04-05T23:43:29.576Z,33.80
2019-04-05T23:45:59.391Z,34.30
2019-04-05T23:48:27.981Z,34.47
2019-04-05T23:50:56.562Z,31.73
2019-04-05T23:53:25.159Z,35.73
2019-04-05T23:55:53.725Z,34.40
2019-04-05T23:58:22.389Z,31.83
